Rowley Shoals, Australia
Current Conditions -  °F | °C
As of 8:00 AM on Sunday 26 Oct 2014 (Local Time) from YPPD Reporting Station
Clear Clear  
Wind Chill: 93°   Ceiling: Unl
Heat Index: 93°   Visibility: 6mi
Dew Point: 41°   Wind: 10mph
Humidity: 16%   Direction: 150°SSE
Pressure: 29.88"   Gusts: NA
Location:  17.53°S, 118.95°E
Report Text: YPPD 260000Z 15009KT CAVOK 34/05 Q1012
Loading
Personal Weather Stations






























Interactive Weather Map
Tropical Storm Tracking
New forecast layout! Learn more

10-Day Weather Forecast

Advertisements
Track Severe Weather on mobile